sensor_id;sensor_type;location;lat;lon;timestamp;P1;durP1;ratioP1;P2;durP2;ratioP2
81868;SDS011;71320;52.252;13.382;2023-07-30T00:01:20;5.10;;;2.42;;
81868;SDS011;71320;52.252;13.382;2023-07-30T00:06:23;4.18;;;2.47;;
81868;SDS011;71320;52.252;13.382;2023-07-30T00:11:25;4.72;;;2.15;;
81868;SDS011;71320;52.252;13.382;2023-07-30T00:16:26;2.75;;;2.20;;
81868;SDS011;71320;52.252;13.382;2023-07-30T00:21:29;4.38;;;2.03;;
81868;SDS011;71320;52.252;13.382;2023-07-30T00:26:31;2.70;;;2.33;;
81868;SDS011;71320;52.252;13.382;2023-07-30T00:31:32;3.55;;;2.33;;
81868;SDS011;71320;52.252;13.382;2023-07-30T00:36:35;2.78;;;1.92;;
81868;SDS011;71320;52.252;13.382;2023-07-30T00:41:37;5.57;;;2.45;;
81868;SDS011;71320;52.252;13.382;2023-07-30T00:46:39;4.65;;;2.13;;
81868;SDS011;71320;52.252;13.382;2023-07-30T00:51:42;4.22;;;2.33;;
81868;SDS011;71320;52.252;13.382;2023-07-30T00:56:46;5.28;;;2.10;;
81868;SDS011;71320;52.252;13.382;2023-07-30T01:01:52;3.65;;;1.88;;
81868;SDS011;71320;52.252;13.382;2023-07-30T01:06:55;6.57;;;2.03;;
81868;SDS011;71320;52.252;13.382;2023-07-30T01:11:57;4.40;;;2.40;;
81868;SDS011;71320;52.252;13.382;2023-07-30T01:17:00;3.50;;;1.98;;
81868;SDS011;71320;52.252;13.382;2023-07-30T01:22:03;5.20;;;2.38;;
81868;SDS011;71320;52.252;13.382;2023-07-30T01:27:05;3.10;;;2.28;;
81868;SDS011;71320;52.252;13.382;2023-07-30T01:32:10;6.90;;;2.42;;
81868;SDS011;71320;52.252;13.382;2023-07-30T01:37:14;3.58;;;2.72;;
81868;SDS011;71320;52.252;13.382;2023-07-30T01:42:16;5.95;;;2.20;;
81868;SDS011;71320;52.252;13.382;2023-07-30T01:47:18;3.47;;;2.20;;
81868;SDS011;71320;52.252;13.382;2023-07-30T01:52:21;4.88;;;2.13;;
81868;SDS011;71320;52.252;13.382;2023-07-30T01:57:23;3.72;;;2.13;;
81868;SDS011;71320;52.252;13.382;2023-07-30T02:02:24;3.80;;;2.03;;
81868;SDS011;71320;52.252;13.382;2023-07-30T02:07:27;2.45;;;2.25;;
81868;SDS011;71320;52.252;13.382;2023-07-30T02:12:29;2.30;;;1.98;;
81868;SDS011;71320;52.252;13.382;2023-07-30T02:17:31;2.72;;;2.00;;
81868;SDS011;71320;52.252;13.382;2023-07-30T02:22:33;2.20;;;1.90;;
81868;SDS011;71320;52.252;13.382;2023-07-30T02:27:35;2.00;;;1.80;;
81868;SDS011;71320;52.252;13.382;2023-07-30T02:32:37;4.65;;;1.95;;
81868;SDS011;71320;52.252;13.382;2023-07-30T02:37:40;5.35;;;2.35;;
81868;SDS011;71320;52.252;13.382;2023-07-30T02:42:41;4.28;;;2.03;;
81868;SDS011;71320;52.252;13.382;2023-07-30T02:47:43;6.55;;;2.33;;
81868;SDS011;71320;52.252;13.382;2023-07-30T02:52:46;4.93;;;1.88;;
81868;SDS011;71320;52.252;13.382;2023-07-30T02:57:47;2.15;;;1.95;;
81868;SDS011;71320;52.252;13.382;2023-07-30T03:02:49;2.83;;;2.08;;
81868;SDS011;71320;52.252;13.382;2023-07-30T03:07:52;3.85;;;2.30;;
81868;SDS011;71320;52.252;13.382;2023-07-30T03:12:54;3.78;;;2.00;;
81868;SDS011;71320;52.252;13.382;2023-07-30T03:17:55;3.17;;;1.80;;
81868;SDS011;71320;52.252;13.382;2023-07-30T03:22:58;2.72;;;2.30;;
81868;SDS011;71320;52.252;13.382;2023-07-30T03:28:00;3.65;;;2.03;;
81868;SDS011;71320;52.252;13.382;2023-07-30T03:33:01;2.90;;;2.10;;
81868;SDS011;71320;52.252;13.382;2023-07-30T03:38:04;2.65;;;1.90;;
81868;SDS011;71320;52.252;13.382;2023-07-30T03:43:06;2.25;;;1.80;;
81868;SDS011;71320;52.252;13.382;2023-07-30T03:48:07;2.80;;;2.33;;
81868;SDS011;71320;52.252;13.382;2023-07-30T03:53:10;2.85;;;2.20;;
81868;SDS011;71320;52.252;13.382;2023-07-30T03:58:12;2.40;;;2.00;;
81868;SDS011;71320;52.252;13.382;2023-07-30T04:03:13;2.80;;;2.00;;
81868;SDS011;71320;52.252;13.382;2023-07-30T04:08:17;3.00;;;1.95;;
81868;SDS011;71320;52.252;13.382;2023-07-30T04:13:18;2.78;;;2.00;;
81868;SDS011;71320;52.252;13.382;2023-07-30T04:18:20;5.13;;;1.90;;
81868;SDS011;71320;52.252;13.382;2023-07-30T04:23:24;2.70;;;1.67;;
81868;SDS011;71320;52.252;13.382;2023-07-30T04:28:25;5.80;;;2.40;;
81868;SDS011;71320;52.252;13.382;2023-07-30T04:33:27;2.67;;;2.10;;
81868;SDS011;71320;52.252;13.382;2023-07-30T04:38:30;2.20;;;1.95;;
81868;SDS011;71320;52.252;13.382;2023-07-30T04:43:32;2.95;;;2.38;;
81868;SDS011;71320;52.252;13.382;2023-07-30T04:48:36;2.90;;;1.98;;
81868;SDS011;71320;52.252;13.382;2023-07-30T04:53:40;5.65;;;2.30;;
81868;SDS011;71320;52.252;13.382;2023-07-30T04:58:41;4.55;;;2.45;;
81868;SDS011;71320;52.252;13.382;2023-07-30T05:03:43;2.20;;;1.95;;
81868;SDS011;71320;52.252;13.382;2023-07-30T05:08:46;2.67;;;1.90;;
81868;SDS011;71320;52.252;13.382;2023-07-30T05:13:48;2.47;;;1.92;;
81868;SDS011;71320;52.252;13.382;2023-07-30T05:18:49;2.67;;;2.00;;
81868;SDS011;71320;52.252;13.382;2023-07-30T05:23:52;2.08;;;1.88;;
81868;SDS011;71320;52.252;13.382;2023-07-30T05:28:54;3.42;;;2.03;;
81868;SDS011;71320;52.252;13.382;2023-07-30T05:33:55;2.63;;;2.05;;
81868;SDS011;71320;52.252;13.382;2023-07-30T05:38:58;3.40;;;2.10;;
81868;SDS011;71320;52.252;13.382;2023-07-30T05:44:00;2.30;;;2.10;;
81868;SDS011;71320;52.252;13.382;2023-07-30T05:49:02;2.47;;;1.88;;
81868;SDS011;71320;52.252;13.382;2023-07-30T05:54:04;2.70;;;2.25;;
81868;SDS011;71320;52.252;13.382;2023-07-30T05:59:06;2.83;;;1.70;;
81868;SDS011;71320;52.252;13.382;2023-07-30T06:04:08;2.47;;;2.20;;
81868;SDS011;71320;52.252;13.382;2023-07-30T06:09:10;2.47;;;2.08;;
81868;SDS011;71320;52.252;13.382;2023-07-30T06:14:12;3.15;;;1.83;;
81868;SDS011;71320;52.252;13.382;2023-07-30T06:19:14;2.45;;;1.55;;
81868;SDS011;71320;52.252;13.382;2023-07-30T06:24:17;2.50;;;1.95;;
81868;SDS011;71320;52.252;13.382;2023-07-30T06:29:18;4.18;;;2.00;;
81868;SDS011;71320;52.252;13.382;2023-07-30T06:34:20;2.60;;;1.88;;
81868;SDS011;71320;52.252;13.382;2023-07-30T06:39:23;1.88;;;1.67;;
81868;SDS011;71320;52.252;13.382;2023-07-30T06:44:24;2.35;;;2.00;;
81868;SDS011;71320;52.252;13.382;2023-07-30T06:49:26;2.30;;;2.10;;
81868;SDS011;71320;52.252;13.382;2023-07-30T06:54:29;3.08;;;2.00;;
81868;SDS011;71320;52.252;13.382;2023-07-30T06:59:31;4.38;;;1.90;;
81868;SDS011;71320;52.252;13.382;2023-07-30T07:04:33;2.00;;;1.83;;
81868;SDS011;71320;52.252;13.382;2023-07-30T07:09:35;2.67;;;1.83;;
81868;SDS011;71320;52.252;13.382;2023-07-30T07:14:37;2.83;;;2.13;;
81868;SDS011;71320;52.252;13.382;2023-07-30T07:19:39;2.60;;;2.22;;
81868;SDS011;71320;52.252;13.382;2023-07-30T07:24:42;2.72;;;2.17;;
81868;SDS011;71320;52.252;13.382;2023-07-30T07:29:43;5.28;;;1.92;;
81868;SDS011;71320;52.252;13.382;2023-07-30T07:34:45;3.15;;;1.98;;
81868;SDS011;71320;52.252;13.382;2023-07-30T07:39:49;2.28;;;2.00;;
81868;SDS011;71320;52.252;13.382;2023-07-30T07:44:51;2.80;;;2.22;;
81868;SDS011;71320;52.252;13.382;2023-07-30T07:49:53;2.10;;;1.90;;
81868;SDS011;71320;52.252;13.382;2023-07-30T07:54:56;1.88;;;1.67;;
81868;SDS011;71320;52.252;13.382;2023-07-30T07:59:58;2.30;;;1.77;;
81868;SDS011;71320;52.252;13.382;2023-07-30T08:04:59;6.47;;;2.63;;
81868;SDS011;71320;52.252;13.382;2023-07-30T08:10:02;2.72;;;2.05;;
81868;SDS011;71320;52.252;13.382;2023-07-30T08:15:05;3.35;;;2.40;;
81868;SDS011;71320;52.252;13.382;2023-07-30T08:20:07;3.22;;;2.10;;
81868;SDS011;71320;52.252;13.382;2023-07-30T08:25:10;1.80;;;1.67;;
81868;SDS011;71320;52.252;13.382;2023-07-30T08:30:12;4.00;;;1.90;;
81868;SDS011;71320;52.252;13.382;2023-07-30T08:35:14;2.55;;;2.05;;
81868;SDS011;71320;52.252;13.382;2023-07-30T08:40:17;1.67;;;1.58;;
81868;SDS011;71320;52.252;13.382;2023-07-30T08:45:19;2.58;;;1.95;;
81868;SDS011;71320;52.252;13.382;2023-07-30T08:50:21;7.82;;;2.05;;
81868;SDS011;71320;52.252;13.382;2023-07-30T08:55:24;2.22;;;2.03;;
81868;SDS011;71320;52.252;13.382;2023-07-30T09:00:30;2.03;;;1.80;;
81868;SDS011;71320;52.252;13.382;2023-07-30T09:05:35;2.45;;;1.70;;
81868;SDS011;71320;52.252;13.382;2023-07-30T09:10:39;3.22;;;2.20;;
81868;SDS011;71320;52.252;13.382;2023-07-30T09:15:40;2.38;;;1.83;;
81868;SDS011;71320;52.252;13.382;2023-07-30T09:20:42;2.20;;;1.75;;
81868;SDS011;71320;52.252;13.382;2023-07-30T09:25:45;2.50;;;1.95;;
81868;SDS011;71320;52.252;13.382;2023-07-30T09:30:49;3.05;;;2.10;;
81868;SDS011;71320;52.252;13.382;2023-07-30T09:35:51;2.63;;;1.77;;
81868;SDS011;71320;52.252;13.382;2023-07-30T09:40:58;1.77;;;1.50;;
81868;SDS011;71320;52.252;13.382;2023-07-30T09:46:01;2.40;;;1.90;;
81868;SDS011;71320;52.252;13.382;2023-07-30T09:51:04;2.15;;;1.88;;
81868;SDS011;71320;52.252;13.382;2023-07-30T09:56:07;2.03;;;1.83;;
81868;SDS011;71320;52.252;13.382;2023-07-30T10:01:09;2.10;;;1.75;;
81868;SDS011;71320;52.252;13.382;2023-07-30T10:06:10;2.20;;;1.75;;
81868;SDS011;71320;52.252;13.382;2023-07-30T10:11:14;3.25;;;1.60;;
81868;SDS011;71320;52.252;13.382;2023-07-30T10:16:16;3.17;;;1.90;;
81868;SDS011;71320;52.252;13.382;2023-07-30T10:21:21;2.80;;;1.73;;
81868;SDS011;71320;52.252;13.382;2023-07-30T10:26:27;5.55;;;1.98;;
81868;SDS011;71320;52.252;13.382;2023-07-30T10:31:37;2.85;;;1.95;;
81868;SDS011;71320;52.252;13.382;2023-07-30T10:36:43;2.00;;;1.83;;
81868;SDS011;71320;52.252;13.382;2023-07-30T10:41:49;1.88;;;1.63;;
81868;SDS011;71320;52.252;13.382;2023-07-30T10:46:52;2.10;;;1.73;;
81868;SDS011;71320;52.252;13.382;2023-07-30T10:51:55;4.30;;;2.20;;
81868;SDS011;71320;52.252;13.382;2023-07-30T10:56:59;3.25;;;2.13;;
81868;SDS011;71320;52.252;13.382;2023-07-30T11:02:01;3.65;;;1.73;;
81868;SDS011;71320;52.252;13.382;2023-07-30T11:07:03;2.45;;;2.08;;
81868;SDS011;71320;52.252;13.382;2023-07-30T11:12:08;2.30;;;1.75;;
81868;SDS011;71320;52.252;13.382;2023-07-30T11:17:10;2.72;;;2.10;;
81868;SDS011;71320;52.252;13.382;2023-07-30T11:22:12;2.60;;;2.05;;
81868;SDS011;71320;52.252;13.382;2023-07-30T11:27:14;2.30;;;1.60;;
81868;SDS011;71320;52.252;13.382;2023-07-30T11:32:16;2.20;;;2.00;;
81868;SDS011;71320;52.252;13.382;2023-07-30T11:37:18;2.65;;;1.70;;
81868;SDS011;71320;52.252;13.382;2023-07-30T11:42:21;2.17;;;1.45;;
81868;SDS011;71320;52.252;13.382;2023-07-30T11:47:22;3.03;;;1.98;;
81868;SDS011;71320;52.252;13.382;2023-07-30T11:52:24;3.22;;;1.67;;
81868;SDS011;71320;52.252;13.382;2023-07-30T11:57:33;4.32;;;2.17;;
81868;SDS011;71320;52.252;13.382;2023-07-30T12:02:35;4.30;;;2.05;;
81868;SDS011;71320;52.252;13.382;2023-07-30T12:07:39;2.75;;;2.10;;
81868;SDS011;71320;52.252;13.382;2023-07-30T12:12:45;2.30;;;1.60;;
81868;SDS011;71320;52.252;13.382;2023-07-30T12:17:47;2.30;;;1.50;;
81868;SDS011;71320;52.252;13.382;2023-07-30T12:22:48;4.78;;;2.60;;
81868;SDS011;71320;52.252;13.382;2023-07-30T12:27:51;4.28;;;1.70;;
81868;SDS011;71320;52.252;13.382;2023-07-30T12:32:53;2.60;;;1.70;;
81868;SDS011;71320;52.252;13.382;2023-07-30T12:37:55;3.13;;;1.95;;
81868;SDS011;71320;52.252;13.382;2023-07-30T12:42:58;3.45;;;1.77;;
81868;SDS011;71320;52.252;13.382;2023-07-30T12:48:00;4.13;;;1.90;;
81868;SDS011;71320;52.252;13.382;2023-07-30T12:53:02;2.05;;;1.55;;
81868;SDS011;71320;52.252;13.382;2023-07-30T12:58:05;3.20;;;1.77;;
81868;SDS011;71320;52.252;13.382;2023-07-30T13:03:06;3.70;;;1.50;;
81868;SDS011;71320;52.252;13.382;2023-07-30T13:08:08;5.90;;;2.28;;
81868;SDS011;71320;52.252;13.382;2023-07-30T13:13:11;2.80;;;2.08;;
81868;SDS011;71320;52.252;13.382;2023-07-30T13:18:12;2.13;;;1.60;;
81868;SDS011;71320;52.252;13.382;2023-07-30T13:23:14;2.92;;;1.42;;
81868;SDS011;71320;52.252;13.382;2023-07-30T13:28:17;3.53;;;2.13;;
81868;SDS011;71320;52.252;13.382;2023-07-30T13:33:19;4.05;;;2.00;;
81868;SDS011;71320;52.252;13.382;2023-07-30T13:38:20;2.85;;;1.80;;
81868;SDS011;71320;52.252;13.382;2023-07-30T13:43:24;4.00;;;1.88;;
81868;SDS011;71320;52.252;13.382;2023-07-30T13:48:25;2.33;;;2.08;;
81868;SDS011;71320;52.252;13.382;2023-07-30T13:53:27;4.53;;;1.63;;
81868;SDS011;71320;52.252;13.382;2023-07-30T13:58:30;3.40;;;2.08;;
81868;SDS011;71320;52.252;13.382;2023-07-30T14:03:32;1.88;;;1.70;;
81868;SDS011;71320;52.252;13.382;2023-07-30T14:08:33;3.45;;;2.13;;
81868;SDS011;71320;52.252;13.382;2023-07-30T14:13:36;2.58;;;1.50;;
81868;SDS011;71320;52.252;13.382;2023-07-30T14:18:38;2.65;;;1.83;;
81868;SDS011;71320;52.252;13.382;2023-07-30T14:23:40;2.67;;;2.05;;
81868;SDS011;71320;52.252;13.382;2023-07-30T14:28:43;2.63;;;1.60;;
81868;SDS011;71320;52.252;13.382;2023-07-30T14:33:44;2.33;;;1.92;;
81868;SDS011;71320;52.252;13.382;2023-07-30T14:38:46;3.10;;;1.88;;
81868;SDS011;71320;52.252;13.382;2023-07-30T14:43:49;2.80;;;1.65;;
81868;SDS011;71320;52.252;13.382;2023-07-30T14:48:50;2.15;;;1.80;;
81868;SDS011;71320;52.252;13.382;2023-07-30T14:53:52;2.25;;;1.58;;
81868;SDS011;71320;52.252;13.382;2023-07-30T14:58:55;1.73;;;1.33;;
81868;SDS011;71320;52.252;13.382;2023-07-30T15:03:56;2.10;;;1.23;;
81868;SDS011;71320;52.252;13.382;2023-07-30T15:08:59;4.05;;;1.40;;
81868;SDS011;71320;52.252;13.382;2023-07-30T15:14:02;1.80;;;1.50;;
81868;SDS011;71320;52.252;13.382;2023-07-30T15:19:03;2.35;;;1.45;;
81868;SDS011;71320;52.252;13.382;2023-07-30T15:24:05;1.98;;;1.50;;
81868;SDS011;71320;52.252;13.382;2023-07-30T15:29:08;1.20;;;1.10;;
81868;SDS011;71320;52.252;13.382;2023-07-30T15:34:10;2.08;;;1.50;;
81868;SDS011;71320;52.252;13.382;2023-07-30T15:39:12;3.38;;;1.65;;
81868;SDS011;71320;52.252;13.382;2023-07-30T15:44:15;1.65;;;1.40;;
81868;SDS011;71320;52.252;13.382;2023-07-30T15:49:16;1.98;;;1.40;;
81868;SDS011;71320;52.252;13.382;2023-07-30T15:54:25;2.28;;;1.20;;
81868;SDS011;71320;52.252;13.382;2023-07-30T15:59:33;1.83;;;1.20;;
81868;SDS011;71320;52.252;13.382;2023-07-30T16:04:35;1.55;;;1.10;;
81868;SDS011;71320;52.252;13.382;2023-07-30T16:09:37;1.08;;;0.90;;
81868;SDS011;71320;52.252;13.382;2023-07-30T16:14:40;1.77;;;1.17;;
81868;SDS011;71320;52.252;13.382;2023-07-30T16:19:44;1.80;;;1.13;;
81868;SDS011;71320;52.252;13.382;2023-07-30T16:24:45;2.00;;;1.10;;
81868;SDS011;71320;52.252;13.382;2023-07-30T16:29:49;1.63;;;1.30;;
81868;SDS011;71320;52.252;13.382;2023-07-30T16:34:51;2.03;;;1.13;;
81868;SDS011;71320;52.252;13.382;2023-07-30T16:39:52;1.80;;;1.10;;
81868;SDS011;71320;52.252;13.382;2023-07-30T16:44:55;2.28;;;1.50;;
81868;SDS011;71320;52.252;13.382;2023-07-30T16:49:57;3.33;;;1.30;;
81868;SDS011;71320;52.252;13.382;2023-07-30T16:54:58;4.43;;;1.48;;
81868;SDS011;71320;52.252;13.382;2023-07-30T17:00:01;2.50;;;2.20;;
81868;SDS011;71320;52.252;13.382;2023-07-30T17:05:06;2.40;;;2.03;;
81868;SDS011;71320;52.252;13.382;2023-07-30T17:10:08;2.30;;;2.00;;
81868;SDS011;71320;52.252;13.382;2023-07-30T17:15:11;3.20;;;2.10;;
81868;SDS011;71320;52.252;13.382;2023-07-30T17:20:14;3.10;;;2.08;;
81868;SDS011;71320;52.252;13.382;2023-07-30T17:25:15;2.72;;;1.88;;
81868;SDS011;71320;52.252;13.382;2023-07-30T17:30:18;2.40;;;1.60;;
81868;SDS011;71320;52.252;13.382;2023-07-30T17:35:21;2.10;;;1.70;;
81868;SDS011;71320;52.252;13.382;2023-07-30T17:40:22;2.78;;;1.45;;
81868;SDS011;71320;52.252;13.382;2023-07-30T17:45:26;2.35;;;1.52;;
81868;SDS011;71320;52.252;13.382;2023-07-30T17:50:30;4.40;;;1.70;;
81868;SDS011;71320;52.252;13.382;2023-07-30T17:55:32;4.03;;;2.00;;
81868;SDS011;71320;52.252;13.382;2023-07-30T18:00:35;2.95;;;2.10;;
81868;SDS011;71320;52.252;13.382;2023-07-30T18:05:43;3.13;;;1.65;;
81868;SDS011;71320;52.252;13.382;2023-07-30T18:10:46;1.90;;;1.50;;
81868;SDS011;71320;52.252;13.382;2023-07-30T18:15:49;2.88;;;1.70;;
81868;SDS011;71320;52.252;13.382;2023-07-30T18:20:51;3.95;;;1.77;;
81868;SDS011;71320;52.252;13.382;2023-07-30T18:25:52;4.32;;;1.58;;
81868;SDS011;71320;52.252;13.382;2023-07-30T18:30:55;5.70;;;1.65;;
81868;SDS011;71320;52.252;13.382;2023-07-30T18:35:57;2.72;;;1.30;;
81868;SDS011;71320;52.252;13.382;2023-07-30T18:41:00;3.50;;;1.75;;
81868;SDS011;71320;52.252;13.382;2023-07-30T18:46:04;4.28;;;1.52;;
81868;SDS011;71320;52.252;13.382;2023-07-30T18:51:06;3.10;;;1.83;;
81868;SDS011;71320;52.252;13.382;2023-07-30T18:56:07;1.40;;;1.30;;
81868;SDS011;71320;52.252;13.382;2023-07-30T19:01:10;2.15;;;1.40;;
81868;SDS011;71320;52.252;13.382;2023-07-30T19:06:12;2.85;;;1.35;;
81868;SDS011;71320;52.252;13.382;2023-07-30T19:11:14;2.03;;;1.17;;
81868;SDS011;71320;52.252;13.382;2023-07-30T19:16:16;2.95;;;1.55;;
81868;SDS011;71320;52.252;13.382;2023-07-30T19:21:18;1.58;;;1.30;;
81868;SDS011;71320;52.252;13.382;2023-07-30T19:26:20;2.72;;;1.35;;
81868;SDS011;71320;52.252;13.382;2023-07-30T19:31:23;2.65;;;1.45;;
81868;SDS011;71320;52.252;13.382;2023-07-30T19:36:25;2.55;;;1.70;;
81868;SDS011;71320;52.252;13.382;2023-07-30T19:41:26;2.20;;;1.50;;
81868;SDS011;71320;52.252;13.382;2023-07-30T19:46:29;2.42;;;1.60;;
81868;SDS011;71320;52.252;13.382;2023-07-30T19:51:31;2.47;;;1.23;;
81868;SDS011;71320;52.252;13.382;2023-07-30T19:56:32;2.78;;;1.65;;
81868;SDS011;71320;52.252;13.382;2023-07-30T20:01:35;3.97;;;1.60;;
81868;SDS011;71320;52.252;13.382;2023-07-30T20:06:37;2.45;;;1.40;;
81868;SDS011;71320;52.252;13.382;2023-07-30T20:11:40;2.55;;;1.60;;
81868;SDS011;71320;52.252;13.382;2023-07-30T20:16:43;2.17;;;1.60;;
81868;SDS011;71320;52.252;13.382;2023-07-30T20:21:44;2.40;;;1.67;;
81868;SDS011;71320;52.252;13.382;2023-07-30T20:26:47;2.47;;;1.48;;
81868;SDS011;71320;52.252;13.382;2023-07-30T20:31:49;1.73;;;1.42;;
81868;SDS011;71320;52.252;13.382;2023-07-30T20:36:51;3.83;;;1.50;;
81868;SDS011;71320;52.252;13.382;2023-07-30T20:41:53;2.92;;;1.55;;
81868;SDS011;71320;52.252;13.382;2023-07-30T20:46:56;3.10;;;1.30;;
81868;SDS011;71320;52.252;13.382;2023-07-30T20:51:59;2.55;;;1.55;;
81868;SDS011;71320;52.252;13.382;2023-07-30T20:57:00;3.00;;;1.55;;
81868;SDS011;71320;52.252;13.382;2023-07-30T21:02:04;2.30;;;1.60;;
81868;SDS011;71320;52.252;13.382;2023-07-30T21:07:06;2.45;;;1.08;;
81868;SDS011;71320;52.252;13.382;2023-07-30T21:12:08;3.20;;;1.45;;
81868;SDS011;71320;52.252;13.382;2023-07-30T21:17:10;3.03;;;1.60;;
81868;SDS011;71320;52.252;13.382;2023-07-30T21:22:13;3.72;;;1.20;;
81868;SDS011;71320;52.252;13.382;2023-07-30T21:27:15;2.00;;;1.20;;
81868;SDS011;71320;52.252;13.382;2023-07-30T21:32:18;2.50;;;1.45;;
81868;SDS011;71320;52.252;13.382;2023-07-30T21:37:20;3.03;;;1.42;;
81868;SDS011;71320;52.252;13.382;2023-07-30T21:42:21;2.70;;;1.45;;
81868;SDS011;71320;52.252;13.382;2023-07-30T21:47:24;1.67;;;1.40;;
81868;SDS011;71320;52.252;13.382;2023-07-30T21:52:26;2.83;;;1.73;;
81868;SDS011;71320;52.252;13.382;2023-07-30T21:57:29;4.63;;;1.60;;
81868;SDS011;71320;52.252;13.382;2023-07-30T22:02:32;1.63;;;1.02;;
81868;SDS011;71320;52.252;13.382;2023-07-30T22:07:34;2.08;;;1.23;;
81868;SDS011;71320;52.252;13.382;2023-07-30T22:12:36;1.90;;;1.30;;
81868;SDS011;71320;52.252;13.382;2023-07-30T22:17:39;3.42;;;1.60;;
81868;SDS011;71320;52.252;13.382;2023-07-30T22:22:40;1.63;;;1.35;;
81868;SDS011;71320;52.252;13.382;2023-07-30T22:27:42;2.83;;;1.83;;
81868;SDS011;71320;52.252;13.382;2023-07-30T22:32:45;2.92;;;1.50;;
81868;SDS011;71320;52.252;13.382;2023-07-30T22:37:46;4.63;;;1.70;;
81868;SDS011;71320;52.252;13.382;2023-07-30T22:42:48;2.90;;;1.40;;
81868;SDS011;71320;52.252;13.382;2023-07-30T22:47:51;2.35;;;1.60;;
81868;SDS011;71320;52.252;13.382;2023-07-30T22:52:53;4.80;;;1.42;;
81868;SDS011;71320;52.252;13.382;2023-07-30T22:57:55;2.80;;;1.75;;
81868;SDS011;71320;52.252;13.382;2023-07-30T23:02:58;2.70;;;1.90;;
81868;SDS011;71320;52.252;13.382;2023-07-30T23:07:59;2.75;;;1.50;;
81868;SDS011;71320;52.252;13.382;2023-07-30T23:13:01;3.03;;;1.67;;
81868;SDS011;71320;52.252;13.382;2023-07-30T23:18:04;2.17;;;1.67;;
81868;SDS011;71320;52.252;13.382;2023-07-30T23:23:06;4.45;;;2.25;;
81868;SDS011;71320;52.252;13.382;2023-07-30T23:28:07;2.28;;;1.55;;
81868;SDS011;71320;52.252;13.382;2023-07-30T23:33:10;4.03;;;1.90;;
81868;SDS011;71320;52.252;13.382;2023-07-30T23:38:12;3.53;;;1.90;;
81868;SDS011;71320;52.252;13.382;2023-07-30T23:43:13;4.32;;;1.67;;
81868;SDS011;71320;52.252;13.382;2023-07-30T23:48:16;3.00;;;1.50;;
81868;SDS011;71320;52.252;13.382;2023-07-30T23:53:18;3.97;;;1.60;;
81868;SDS011;71320;52.252;13.382;2023-07-30T23:58:20;2.75;;;1.48;;
